Lemoore Naval Air Station (Reeves Field) Airport Lemoore US
ICAO: KNLC
IATA: NLC
Category: Medium
Scheduled Services: No

Elevation: 232 ft
TransAlt. 18000 ft.

Airport Communications:
APP:118.15
ATIS:26.76
CLNC DEL:124.1
DEP:118.15
GND:121.65
BASE OPS:29.93
PMSV METRO:31.7
TWR:128.3

KNLC Zoom In..

Runways:

(A) RW 14L length 13500 ft width 200 ft
---- / hdg 142

(B) RW 14R length 13497 ft width 200 ft
---- / hdg 142

(C) RW 32L length 13497 ft width 200 ft
---- / hdg 322

(D) RW 32R length 13500 ft width 200 ft
---- / hdg 322

Location; KNLC
Day. 22 / Time. 23.56 Zulu
* Altimeter: 30.29
* Temperature: 15° c. 59°f.
* Wind from: 150° Speed 06 kn.
Dewpoint: 04° c.
Visibility: 10 Statute Miles.
Clouds: Few 9000 ft.
Clouds: Scattered 21000 ft.

KNLC 222356Z 15006KT 10SM FEW090 SCT210 15/04 A3029 RMK AO2 SLP256 RH/49 T01500039 10156 20089 56015 $


Wind From 150°
Speed 06 kn.

YouTube Music Video
 
jpsmedia.com for Web Design  worldairports.se 2018   terms of use